createdAt,value
2023-02-09T00:01:16.561Z,59.95
2023-02-09T00:03:47.580Z,60.29
2023-02-09T00:06:19.727Z,59.96
2023-02-09T00:08:47.522Z,60.54
2023-02-09T00:11:19.637Z,59.56
2023-02-09T00:13:46.471Z,60.36
2023-02-09T00:16:14.570Z,60.94
2023-02-09T00:18:42.426Z,60.54
2023-02-09T00:21:12.060Z,59.69
2023-02-09T00:23:42.110Z,59.16
2023-02-09T00:26:12.304Z,59.75
2023-02-09T00:28:43.427Z,59.82
2023-02-09T00:31:13.752Z,59.90
2023-02-09T00:33:42.151Z,59.91
2023-02-09T00:36:13.250Z,59.58
2023-02-09T00:38:44.271Z,58.53
2023-02-09T00:41:13.428Z,58.79
2023-02-09T00:43:42.071Z,59.69
2023-02-09T00:46:10.528Z,60.27
2023-02-09T00:48:38.570Z,60.00
2023-02-09T00:51:06.659Z,60.02
2023-02-09T00:53:36.798Z,59.34
2023-02-09T00:56:06.746Z,58.63
2023-02-09T00:58:34.576Z,58.68
2023-02-09T01:01:02.365Z,58.64
2023-02-09T01:03:30.183Z,56.99
2023-02-09T01:05:59.711Z,54.88
2023-02-09T01:08:28.871Z,53.06
2023-02-09T01:10:56.689Z,51.81
2023-02-09T01:13:26.167Z,50.89
2023-02-09T01:15:54.004Z,50.11
2023-02-09T01:18:21.760Z,48.92
2023-02-09T01:20:49.741Z,48.07
2023-02-09T01:23:17.589Z,47.10
2023-02-09T01:25:45.902Z,46.56
2023-02-09T01:28:13.809Z,45.95
2023-02-09T01:30:43.421Z,45.39
2023-02-09T01:33:11.397Z,44.81
2023-02-09T01:35:39.179Z,44.69
2023-02-09T01:38:06.950Z,44.99
2023-02-09T01:40:36.456Z,44.70
2023-02-09T01:43:04.598Z,44.33
2023-02-09T01:45:37.622Z,44.26
2023-02-09T01:48:06.871Z,44.30
2023-02-09T01:50:38.438Z,44.02
2023-02-09T01:53:07.426Z,43.90
2023-02-09T01:55:39.107Z,43.52
2023-02-09T01:58:11.465Z,43.42
2023-02-09T02:00:39.426Z,43.40
2023-02-09T02:03:13.487Z,43.13
2023-02-09T02:05:45.043Z,43.20
2023-02-09T02:08:20.689Z,42.82
2023-02-09T02:10:48.495Z,43.37
2023-02-09T02:13:16.486Z,42.61
2023-02-09T02:15:57.236Z,42.80
2023-02-09T02:18:38.301Z,42.76
2023-02-09T02:21:57.995Z,42.39
2023-02-09T02:24:55.644Z,42.21
2023-02-09T02:27:32.100Z,42.60
2023-02-09T02:30:27.910Z,42.39
2023-02-09T02:33:14.165Z,42.74
2023-02-09T02:35:47.110Z,43.10
2023-02-09T02:38:25.427Z,43.04
2023-02-09T02:40:59.055Z,42.82
2023-02-09T02:43:41.296Z,43.24
2023-02-09T02:46:15.449Z,43.50
2023-02-09T02:48:48.868Z,43.03
2023-02-09T02:51:22.626Z,43.43
2023-02-09T02:53:57.026Z,43.05
2023-02-09T02:56:28.970Z,43.14
2023-02-09T02:59:00.440Z,43.07
2023-02-09T03:01:34.102Z,43.01
2023-02-09T03:04:06.121Z,42.94
2023-02-09T03:06:35.091Z,42.79
2023-02-09T03:09:03.704Z,42.50
2023-02-09T03:11:35.770Z,42.02
2023-02-09T03:14:19.786Z,42.29
2023-02-09T03:16:51.481Z,42.29
2023-02-09T03:19:32.238Z,42.90
2023-02-09T03:22:07.208Z,42.75
2023-02-09T03:24:40.398Z,43.07
2023-02-09T03:27:16.636Z,43.58
2023-02-09T03:29:46.557Z,42.76
2023-02-09T03:32:15.839Z,42.87
2023-02-09T03:34:46.423Z,42.92
2023-02-09T03:37:14.279Z,43.19
2023-02-09T03:39:42.470Z,43.33
2023-02-09T03:42:10.288Z,42.98
2023-02-09T03:44:38.079Z,43.18
2023-02-09T03:47:08.249Z,43.14
2023-02-09T03:49:39.170Z,42.92
2023-02-09T03:52:10.380Z,42.67
2023-02-09T03:54:38.486Z,42.80
2023-02-09T03:57:07.388Z,43.07
2023-02-09T03:59:37.562Z,42.58
2023-02-09T04:02:07.448Z,42.92
2023-02-09T04:04:35.683Z,43.23
2023-02-09T04:07:03.797Z,42.44
2023-02-09T04:09:33.091Z,42.89
2023-02-09T04:12:00.906Z,42.66
2023-02-09T04:14:28.818Z,43.19
2023-02-09T04:16:56.664Z,43.08
2023-02-09T04:19:24.589Z,42.79
2023-02-09T04:21:52.384Z,43.48
2023-02-09T04:24:27.306Z,43.18
2023-02-09T04:26:56.686Z,42.78
2023-02-09T04:29:24.471Z,43.29
2023-02-09T04:31:52.438Z,42.75
2023-02-09T04:34:21.179Z,43.00
2023-02-09T04:36:49.064Z,43.42
2023-02-09T04:39:16.913Z,43.40
2023-02-09T04:41:44.685Z,43.44
2023-02-09T04:44:13.801Z,43.59
2023-02-09T04:46:41.654Z,43.40
2023-02-09T04:49:09.514Z,43.84
2023-02-09T04:51:37.793Z,43.96
2023-02-09T04:54:05.742Z,43.96
2023-02-09T04:56:33.788Z,43.56
2023-02-09T04:59:19.314Z,43.32
2023-02-09T05:01:48.608Z,44.03
2023-02-09T05:04:16.506Z,43.72
2023-02-09T05:06:44.328Z,43.90
2023-02-09T05:09:12.196Z,44.27
2023-02-09T05:11:40.080Z,43.91
2023-02-09T05:14:08.851Z,44.20
2023-02-09T05:16:39.041Z,44.22
2023-02-09T05:19:08.429Z,43.95
2023-02-09T05:21:36.289Z,44.39
2023-02-09T05:24:04.161Z,44.70
2023-02-09T05:26:32.571Z,44.30
2023-02-09T05:29:00.391Z,44.57
2023-02-09T05:31:28.538Z,44.39
2023-02-09T05:33:56.364Z,44.60
2023-02-09T05:36:25.698Z,43.66
2023-02-09T05:38:53.476Z,43.65
2023-02-09T05:41:35.290Z,43.83
2023-02-09T05:44:03.227Z,43.08
2023-02-09T05:46:31.179Z,43.21
2023-02-09T05:48:58.969Z,43.86
2023-02-09T05:51:28.171Z,44.12
2023-02-09T05:53:56.360Z,43.89
2023-02-09T05:56:24.148Z,43.74
2023-02-09T05:58:51.940Z,43.58
2023-02-09T06:01:19.762Z,43.58
2023-02-09T06:03:47.719Z,44.39
2023-02-09T06:06:15.637Z,44.52
2023-02-09T06:08:44.920Z,43.65
2023-02-09T06:11:12.655Z,43.89
2023-02-09T06:13:41.038Z,44.35
2023-02-09T06:16:09.788Z,44.37
2023-02-09T06:18:38.126Z,44.63
2023-02-09T06:21:06.690Z,44.60
2023-02-09T06:23:35.386Z,44.77
2023-02-09T06:26:08.643Z,45.07
2023-02-09T06:28:36.667Z,44.76
2023-02-09T06:31:05.438Z,44.20
2023-02-09T06:33:34.417Z,45.05
2023-02-09T06:36:02.399Z,44.84
2023-02-09T06:38:31.824Z,44.71
2023-02-09T06:40:59.590Z,45.19
2023-02-09T06:43:28.948Z,45.06
2023-02-09T06:45:56.859Z,45.34
2023-02-09T06:48:24.742Z,44.71
2023-02-09T06:50:52.733Z,44.18
2023-02-09T06:53:20.598Z,44.71
2023-02-09T06:55:48.459Z,44.34
2023-02-09T06:58:16.287Z,44.83
2023-02-09T07:00:46.290Z,44.27
2023-02-09T07:03:14.370Z,44.25
2023-02-09T07:05:42.256Z,44.23
2023-02-09T07:08:10.825Z,44.74
2023-02-09T07:10:41.097Z,45.11
2023-02-09T07:13:08.992Z,44.17
2023-02-09T07:15:42.089Z,44.29
2023-02-09T07:18:11.349Z,44.48
2023-02-09T07:20:39.153Z,44.86
2023-02-09T07:23:07.658Z,44.38
2023-02-09T07:25:35.634Z,43.53
2023-02-09T07:28:03.560Z,43.40
2023-02-09T07:30:31.360Z,43.29
2023-02-09T07:32:59.161Z,43.27
2023-02-09T07:35:28.495Z,43.09
2023-02-09T07:37:56.330Z,42.74
2023-02-09T07:40:24.309Z,42.93
2023-02-09T07:42:52.249Z,43.42
2023-02-09T07:45:20.163Z,42.36
2023-02-09T07:47:47.957Z,42.49
2023-02-09T07:50:15.926Z,42.57
2023-02-09T07:52:45.154Z,42.54
2023-02-09T07:55:12.909Z,42.42
2023-02-09T07:57:41.534Z,43.46
2023-02-09T08:00:10.804Z,43.08
2023-02-09T08:02:42.993Z,41.85
2023-02-09T08:05:15.351Z,42.08
2023-02-09T08:07:43.296Z,41.29
2023-02-09T08:10:12.746Z,40.75
2023-02-09T08:12:58.695Z,41.44
2023-02-09T08:15:29.565Z,40.92
2023-02-09T08:18:01.124Z,40.66
2023-02-09T08:20:31.824Z,41.64
2023-02-09T08:23:06.922Z,41.71
2023-02-09T08:25:37.639Z,40.42
2023-02-09T08:28:06.590Z,40.52
2023-02-09T08:30:35.622Z,39.99
2023-02-09T08:33:03.716Z,39.89
2023-02-09T08:35:31.600Z,39.42
2023-02-09T08:38:03.460Z,39.39
2023-02-09T08:40:32.061Z,39.58
2023-02-09T08:43:01.295Z,39.18
2023-02-09T08:45:29.449Z,40.07
2023-02-09T08:47:57.349Z,39.50
2023-02-09T08:50:25.160Z,39.71
2023-02-09T08:52:53.082Z,39.81
2023-02-09T08:55:20.971Z,40.17
2023-02-09T08:57:48.757Z,39.27
2023-02-09T09:00:19.152Z,39.48
2023-02-09T09:02:47.004Z,38.90
2023-02-09T09:05:15.270Z,39.72
2023-02-09T09:07:43.284Z,40.27
2023-02-09T09:10:12.708Z,38.90
2023-02-09T09:12:40.635Z,38.29
2023-02-09T09:15:09.115Z,39.08
2023-02-09T09:17:38.385Z,38.71
2023-02-09T09:20:07.068Z,38.42
2023-02-09T09:22:35.038Z,37.61
2023-02-09T09:25:02.966Z,38.82
2023-02-09T09:27:32.659Z,39.05
2023-02-09T09:30:00.510Z,38.72
2023-02-09T09:32:28.571Z,37.31
2023-02-09T09:35:00.035Z,37.02
2023-02-09T09:37:28.318Z,36.86
2023-02-09T09:39:56.200Z,36.15
2023-02-09T09:42:28.740Z,36.07
2023-02-09T09:44:56.895Z,36.34
2023-02-09T09:47:33.885Z,36.02
2023-02-09T09:50:03.319Z,35.33
2023-02-09T09:52:33.231Z,36.64
2023-02-09T09:55:02.404Z,34.99
2023-02-09T09:57:31.476Z,34.44
2023-02-09T09:59:59.452Z,33.97
2023-02-09T10:02:31.052Z,33.65
2023-02-09T10:05:11.596Z,35.41
2023-02-09T10:07:42.589Z,33.20
2023-02-09T10:10:16.805Z,33.44
2023-02-09T10:12:49.637Z,33.18
2023-02-09T10:15:19.813Z,34.25
2023-02-09T10:17:47.607Z,33.58
2023-02-09T10:20:16.753Z,32.46
2023-02-09T10:22:45.587Z,32.72
2023-02-09T10:25:39.173Z,33.70
2023-02-09T10:28:07.323Z,32.68
2023-02-09T10:30:35.262Z,32.95
2023-02-09T10:33:03.750Z,32.83
2023-02-09T10:35:43.222Z,32.39
2023-02-09T10:38:17.107Z,32.28
2023-02-09T10:40:47.470Z,32.46
2023-02-09T10:43:24.983Z,32.33
2023-02-09T10:45:56.017Z,35.07
2023-02-09T10:48:25.828Z,33.38
2023-02-09T10:50:58.349Z,32.87
2023-02-09T10:53:28.266Z,33.61
2023-02-09T10:56:05.998Z,31.58
2023-02-09T10:58:35.900Z,32.62
2023-02-09T11:01:18.139Z,30.75
2023-02-09T11:04:00.163Z,30.90
2023-02-09T11:06:34.605Z,29.94
2023-02-09T11:09:07.787Z,28.34
2023-02-09T11:11:38.550Z,25.78
2023-02-09T11:14:13.027Z,25.10
2023-02-09T11:17:10.968Z,25.84
2023-02-09T11:20:07.426Z,27.95
2023-02-09T11:23:05.648Z,27.80
2023-02-09T11:25:37.353Z,26.67
2023-02-09T11:28:36.962Z,26.64
2023-02-09T11:31:25.644Z,27.34
2023-02-09T11:34:01.180Z,28.87
2023-02-09T11:36:41.769Z,28.47
2023-02-09T11:39:18.129Z,27.25
2023-02-09T11:42:08.267Z,26.83
2023-02-09T11:44:42.415Z,25.77
2023-02-09T11:47:15.697Z,25.21
2023-02-09T11:49:46.648Z,25.19
2023-02-09T11:52:19.005Z,24.36
2023-02-09T11:54:53.808Z,24.38
2023-02-09T11:57:31.565Z,23.74
2023-02-09T12:00:02.169Z,23.45
2023-02-09T12:02:43.034Z,22.71
2023-02-09T12:05:14.672Z,22.72
2023-02-09T12:07:49.097Z,25.05
2023-02-09T12:10:28.802Z,23.38
2023-02-09T12:13:03.571Z,24.76
2023-02-09T12:15:40.616Z,25.69
2023-02-09T12:18:13.169Z,24.41
2023-02-09T12:20:52.402Z,24.29
2023-02-09T12:23:28.277Z,24.84
2023-02-09T12:25:59.960Z,24.74
2023-02-09T12:28:44.921Z,23.28
2023-02-09T12:31:28.216Z,24.20
2023-02-09T12:34:23.429Z,24.43
2023-02-09T12:37:16.910Z,24.25
2023-02-09T12:40:22.484Z,23.71
2023-02-09T12:43:30.008Z,22.86
2023-02-09T12:46:26.341Z,23.54
2023-02-09T12:49:07.491Z,24.48
2023-02-09T12:52:13.670Z,24.54
2023-02-09T12:54:44.659Z,24.39
2023-02-09T12:57:52.107Z,23.94
2023-02-09T13:00:34.367Z,23.89
2023-02-09T13:03:17.953Z,24.35
2023-02-09T13:05:49.795Z,25.21
2023-02-09T13:08:25.098Z,24.06
2023-02-09T13:10:58.538Z,24.84
2023-02-09T13:13:35.413Z,24.37
2023-02-09T13:16:34.134Z,25.00
2023-02-09T13:19:07.754Z,23.92
2023-02-09T13:21:48.162Z,24.29
2023-02-09T13:24:17.955Z,23.32
2023-02-09T13:26:54.342Z,23.52
2023-02-09T13:29:24.029Z,23.22
2023-02-09T13:32:02.950Z,23.52
2023-02-09T13:34:36.486Z,22.98
2023-02-09T13:37:19.250Z,22.80
2023-02-09T13:39:54.947Z,22.99
2023-02-09T13:42:24.945Z,24.02
2023-02-09T13:44:54.438Z,23.57
2023-02-09T13:47:23.376Z,24.05
2023-02-09T13:50:00.158Z,21.03
2023-02-09T13:52:35.286Z,21.35
2023-02-09T13:55:12.836Z,23.61
2023-02-09T13:57:43.088Z,23.65
2023-02-09T14:00:22.753Z,24.76
2023-02-09T14:02:53.856Z,25.59
2023-02-09T14:05:30.390Z,26.14
2023-02-09T14:08:00.720Z,25.99
2023-02-09T14:10:29.943Z,25.13
2023-02-09T14:13:02.921Z,25.61
2023-02-09T14:15:55.664Z,26.42
2023-02-09T14:18:33.273Z,25.58
2023-02-09T14:21:26.820Z,25.38
2023-02-09T14:24:17.551Z,24.97
2023-02-09T14:26:50.069Z,25.05
2023-02-09T14:29:21.971Z,25.73
2023-02-09T14:31:51.713Z,26.64
2023-02-09T14:34:25.844Z,26.08
2023-02-09T14:36:54.895Z,26.31
2023-02-09T14:39:24.449Z,27.46
2023-02-09T14:42:01.155Z,27.63
2023-02-09T14:44:30.331Z,28.13
2023-02-09T14:46:59.704Z,28.77
2023-02-09T14:49:28.896Z,29.19
2023-02-09T14:52:04.646Z,28.39
2023-02-09T14:54:38.252Z,28.60
2023-02-09T14:57:06.064Z,29.17
2023-02-09T14:59:33.822Z,28.58
2023-02-09T15:02:01.626Z,29.34
2023-02-09T15:04:29.386Z,29.64
2023-02-09T15:07:02.994Z,28.43
2023-02-09T15:09:36.138Z,27.80
2023-02-09T15:12:07.682Z,28.36
2023-02-09T15:14:41.459Z,28.00
2023-02-09T15:17:18.121Z,28.55
2023-02-09T15:19:46.641Z,28.81
2023-02-09T15:22:16.161Z,29.58
2023-02-09T15:24:46.828Z,29.37
2023-02-09T15:27:19.566Z,30.13
2023-02-09T15:29:47.372Z,29.88
2023-02-09T15:32:16.358Z,29.55
2023-02-09T15:35:03.361Z,30.93
2023-02-09T15:37:36.694Z,31.34
2023-02-09T15:40:40.590Z,31.08
2023-02-09T15:43:34.443Z,31.33
2023-02-09T15:46:19.625Z,31.95
2023-02-09T15:48:47.471Z,31.58
2023-02-09T15:51:16.239Z,31.92
2023-02-09T15:53:44.993Z,31.94
2023-02-09T15:56:15.808Z,33.24
2023-02-09T15:58:46.330Z,32.74
2023-02-09T16:01:16.656Z,33.27
2023-02-09T16:03:45.407Z,33.35
2023-02-09T16:06:16.856Z,34.15
2023-02-09T16:08:45.872Z,33.49
2023-02-09T16:11:20.642Z,33.46
2023-02-09T16:13:48.794Z,34.07
2023-02-09T16:16:17.887Z,33.98
2023-02-09T16:18:46.451Z,34.35
2023-02-09T16:21:20.934Z,34.70
2023-02-09T16:23:49.003Z,35.01
2023-02-09T16:26:19.274Z,34.69
2023-02-09T16:28:48.115Z,35.41
2023-02-09T16:31:15.873Z,35.06
2023-02-09T16:33:43.714Z,35.46
2023-02-09T16:36:16.749Z,35.29
2023-02-09T16:38:45.380Z,35.47
2023-02-09T16:41:35.257Z,35.54
2023-02-09T16:44:13.452Z,35.56
2023-02-09T16:46:42.352Z,35.44
2023-02-09T16:49:26.828Z,35.48
2023-02-09T16:51:57.242Z,35.82
2023-02-09T16:54:25.040Z,36.06
2023-02-09T16:56:54.485Z,35.93
2023-02-09T16:59:24.000Z,36.01
2023-02-09T17:01:51.910Z,36.24
2023-02-09T17:04:20.012Z,36.60
2023-02-09T17:06:50.482Z,36.30
2023-02-09T17:09:18.273Z,36.72
2023-02-09T17:11:46.226Z,36.99
2023-02-09T17:14:14.267Z,37.00
2023-02-09T17:16:49.402Z,36.98
2023-02-09T17:19:20.172Z,36.75
2023-02-09T17:21:48.030Z,36.92
2023-02-09T17:24:17.488Z,37.25
2023-02-09T17:26:45.555Z,37.62
2023-02-09T17:29:13.372Z,37.76
2023-02-09T17:31:53.206Z,38.10
2023-02-09T17:34:26.901Z,38.99
2023-02-09T17:36:54.910Z,39.24
2023-02-09T17:39:22.678Z,38.84
2023-02-09T17:41:50.643Z,39.09
2023-02-09T17:44:28.876Z,39.63
2023-02-09T17:47:04.375Z,39.57
2023-02-09T17:49:33.183Z,40.16
2023-02-09T17:52:01.165Z,39.10
2023-02-09T17:54:29.756Z,39.94
2023-02-09T17:56:57.542Z,39.98
2023-02-09T17:59:25.394Z,40.24
2023-02-09T18:01:55.196Z,40.76
2023-02-09T18:04:27.064Z,40.73
2023-02-09T18:06:57.500Z,41.17
2023-02-09T18:09:25.559Z,40.89
2023-02-09T18:11:59.737Z,41.37
2023-02-09T18:14:28.996Z,40.65
2023-02-09T18:16:57.060Z,41.80
2023-02-09T18:19:26.804Z,42.10
2023-02-09T18:21:57.635Z,42.08
2023-02-09T18:24:28.186Z,42.27
2023-02-09T18:26:57.084Z,42.45
2023-02-09T18:29:29.159Z,42.66
2023-02-09T18:31:57.471Z,42.74
2023-02-09T18:34:26.731Z,42.20
2023-02-09T18:36:54.742Z,41.28
2023-02-09T18:39:22.645Z,41.68
2023-02-09T18:41:54.451Z,41.35
2023-02-09T18:44:24.524Z,41.27
2023-02-09T18:46:52.416Z,41.06
2023-02-09T18:49:20.216Z,41.08
2023-02-09T18:51:49.707Z,41.71
2023-02-09T18:54:17.503Z,40.99
2023-02-09T18:56:45.542Z,40.64
2023-02-09T18:59:13.507Z,40.72
2023-02-09T19:01:41.528Z,40.78
2023-02-09T19:04:09.422Z,40.75
2023-02-09T19:06:37.945Z,40.91
2023-02-09T19:09:07.139Z,41.30
2023-02-09T19:11:35.121Z,41.50
2023-02-09T19:14:20.367Z,41.59
2023-02-09T19:16:48.191Z,42.06
2023-02-09T19:19:16.258Z,42.08
2023-02-09T19:21:44.238Z,42.72
2023-02-09T19:24:13.613Z,42.86
2023-02-09T19:26:41.497Z,43.15
2023-02-09T19:29:09.408Z,43.00
2023-02-09T19:31:37.689Z,43.30
2023-02-09T19:34:05.678Z,44.12
2023-02-09T19:36:33.943Z,43.96
2023-02-09T19:39:02.523Z,44.01
2023-02-09T19:41:32.246Z,44.36
2023-02-09T19:44:00.168Z,44.39
2023-02-09T19:46:28.186Z,44.41
2023-02-09T19:48:56.148Z,44.25
2023-02-09T19:51:24.450Z,44.46
2023-02-09T19:53:52.433Z,45.38
2023-02-09T19:56:23.295Z,45.28
2023-02-09T19:58:53.016Z,45.09
2023-02-09T20:01:22.248Z,45.40
2023-02-09T20:03:52.202Z,45.59
2023-02-09T20:06:20.083Z,44.77
2023-02-09T20:08:48.098Z,46.66
2023-02-09T20:11:18.492Z,46.86
2023-02-09T20:13:46.807Z,48.40
2023-02-09T20:16:20.204Z,48.16
2023-02-09T20:18:48.925Z,48.17
2023-02-09T20:21:18.416Z,48.96
2023-02-09T20:23:46.906Z,49.94
2023-02-09T20:26:17.599Z,50.26
2023-02-09T20:28:45.940Z,50.10
2023-02-09T20:31:15.056Z,49.48
2023-02-09T20:33:45.176Z,50.97
2023-02-09T20:36:13.174Z,50.90
2023-02-09T20:38:41.095Z,51.36
2023-02-09T20:41:10.707Z,53.56
2023-02-09T20:43:56.156Z,53.89
2023-02-09T20:46:55.468Z,54.57
2023-02-09T20:49:31.152Z,56.45
2023-02-09T20:51:59.528Z,57.02
2023-02-09T20:54:27.599Z,57.02
2023-02-09T20:56:55.443Z,56.34
2023-02-09T20:59:23.365Z,56.16
2023-02-09T21:01:52.272Z,57.71
2023-02-09T21:04:20.172Z,57.08
2023-02-09T21:06:49.736Z,56.48
2023-02-09T21:09:19.095Z,56.64
2023-02-09T21:11:47.127Z,57.42
2023-02-09T21:14:22.158Z,57.28
2023-02-09T21:16:56.274Z,57.08
2023-02-09T21:19:24.983Z,57.69
2023-02-09T21:21:54.184Z,57.99
2023-02-09T21:24:22.170Z,57.97
2023-02-09T21:26:50.132Z,57.77
2023-02-09T21:29:18.217Z,59.20
2023-02-09T21:31:46.524Z,59.93
2023-02-09T21:34:15.757Z,59.65
2023-02-09T21:36:44.186Z,59.71
2023-02-09T21:39:14.078Z,59.70
2023-02-09T21:41:59.091Z,59.33
2023-02-09T21:44:26.993Z,59.63
2023-02-09T21:46:54.932Z,59.70
2023-02-09T21:49:23.146Z,59.30
2023-02-09T21:51:51.025Z,59.34
2023-02-09T21:54:20.250Z,59.35
2023-02-09T21:56:48.164Z,58.98
2023-02-09T21:59:15.947Z,58.29
2023-02-09T22:01:43.809Z,59.38
2023-02-09T22:04:11.726Z,58.68
2023-02-09T22:06:41.616Z,58.65
2023-02-09T22:09:09.779Z,57.71
2023-02-09T22:11:38.984Z,58.36
2023-02-09T22:14:06.776Z,58.72
2023-02-09T22:16:34.873Z,58.71
2023-02-09T22:19:02.800Z,58.68
2023-02-09T22:21:30.665Z,58.52
2023-02-09T22:23:58.576Z,58.73
2023-02-09T22:26:26.468Z,58.33
2023-02-09T22:28:55.745Z,58.00
2023-02-09T22:31:23.757Z,58.34
2023-02-09T22:33:54.876Z,58.92
2023-02-09T22:36:23.355Z,59.65
2023-02-09T22:38:51.693Z,58.89
2023-02-09T22:41:24.232Z,59.03
2023-02-09T22:43:54.024Z,58.87
2023-02-09T22:46:25.179Z,59.17
2023-02-09T22:48:53.640Z,59.55
2023-02-09T22:51:22.103Z,59.38
2023-02-09T22:53:49.936Z,59.11
2023-02-09T22:56:18.433Z,59.71
2023-02-09T22:58:46.190Z,59.88
2023-02-09T23:01:14.458Z,60.37
2023-02-09T23:03:43.672Z,60.83
2023-02-09T23:06:14.116Z,60.51
2023-02-09T23:08:41.951Z,60.25
2023-02-09T23:11:13.487Z,60.26
2023-02-09T23:13:42.006Z,60.17
2023-02-09T23:16:12.396Z,59.02
2023-02-09T23:18:41.058Z,59.78
2023-02-09T23:21:10.266Z,59.91
2023-02-09T23:23:38.039Z,59.71
2023-02-09T23:26:05.827Z,59.80
2023-02-09T23:28:33.793Z,59.71
2023-02-09T23:31:05.534Z,59.83
2023-02-09T23:33:34.635Z,58.43
2023-02-09T23:36:04.870Z,59.21
2023-02-09T23:38:34.058Z,58.85
2023-02-09T23:41:06.709Z,59.52
2023-02-09T23:43:34.869Z,60.38
2023-02-09T23:46:03.012Z,60.31
2023-02-09T23:48:31.268Z,60.09
2023-02-09T23:51:00.630Z,61.13
2023-02-09T23:53:28.604Z,59.82
2023-02-09T23:56:03.556Z,61.49
2023-02-09T23:58:32.231Z,61.13
